Time,TemperatureF,DewpointF,PressureIn,WindDirection,WindDirectionDegrees,WindSpeedMPH,WindSpeedGustMPH,Humidity,HourlyPrecipIn,Conditions,Clouds,dailyrainin,SoftwareType,DateUTC
2013-06-17 00:00:00,59.8,40.1,30.03,WNW,302,1.0,1.0,48,0.00,,,0.00,Wunderground v.1.15,2013-06-17 07:00:00,
2013-06-17 00:10:00,59.2,40.0,30.03,WNW,302,1.0,2.0,49,0.00,,,0.00,Wunderground v.1.15,2013-06-17 07:10:00,
2013-06-17 00:15:00,59.0,39.9,30.03,NW,309,2.0,4.0,49,0.00,,,0.00,Wunderground v.1.15,2013-06-17 07:15:00,
2013-06-17 00:20:00,59.0,39.9,30.03,NW,311,4.0,5.0,49,0.00,,,0.00,Wunderground v.1.15,2013-06-17 07:20:00,
2013-06-17 00:25:00,58.7,40.1,30.03,NW,310,4.0,5.0,50,0.00,,,0.00,Wunderground v.1.15,2013-06-17 07:25:00,
2013-06-17 00:35:00,58.0,40.0,30.03,NW,310,1.0,3.0,51,0.00,,,0.00,Wunderground v.1.15,2013-06-17 07:35:00,
2013-06-17 00:40:00,57.5,39.5,30.03,NW,310,0.0,0.0,51,0.00,,,0.00,Wunderground v.1.15,2013-06-17 07:40:00,
2013-06-17 00:50:00,56.9,39.4,30.03,NW,310,1.0,3.0,52,0.00,,,0.00,Wunderground v.1.15,2013-06-17 07:50:00,
2013-06-17 00:55:00,56.7,39.7,30.03,NW,310,2.0,3.0,53,0.00,,,0.00,Wunderground v.1.15,2013-06-17 07:55:00,
2013-06-17 01:00:00,56.7,39.7,30.03,NW,307,3.0,3.0,53,0.00,,,0.00,Wunderground v.1.15,2013-06-17 08:00:00,
2013-06-17 01:10:00,56.3,39.4,30.03,NW,306,2.0,2.0,53,0.00,,,0.00,Wunderground v.1.15,2013-06-17 08:10:00,
2013-06-17 01:15:00,56.0,39.6,30.03,NW,306,0.0,2.0,54,0.00,,,0.00,Wunderground v.1.15,2013-06-17 08:15:00,
2013-06-17 01:25:00,55.4,39.0,30.03,NW,306,0.0,1.0,54,0.00,,,0.00,Wunderground v.1.15,2013-06-17 08:25:00,
2013-06-17 01:30:00,55.0,38.6,30.03,NW,306,1.0,1.0,54,0.00,,,0.00,Wunderground v.1.15,2013-06-17 08:30:00,
2013-06-17 01:40:00,54.4,39.0,30.03,NW,306,0.0,0.0,56,0.00,,,0.00,Wunderground v.1.15,2013-06-17 08:40:00,
2013-06-17 01:45:00,54.2,39.3,30.03,NW,306,0.0,0.0,57,0.00,,,0.00,Wunderground v.1.15,2013-06-17 08:45:00,
2013-06-17 01:50:00,54.1,39.2,30.03,NW,306,0.0,0.0,57,0.00,,,0.00,Wunderground v.1.15,2013-06-17 08:50:00,
2013-06-17 02:00:00,53.6,38.7,30.03,NW,306,0.0,0.0,57,0.00,,,0.00,Wunderground v.1.15,2013-06-17 09:00:00,
2013-06-17 02:05:00,53.3,38.9,30.03,NW,306,0.0,0.0,58,0.00,,,0.00,Wunderground v.1.15,2013-06-17 09:05:00,
2013-06-17 02:15:00,52.9,38.5,30.03,NW,306,1.0,3.0,58,0.00,,,0.00,Wunderground v.1.15,2013-06-17 09:15:00,
2013-06-17 02:20:00,53.1,38.7,30.03,West,275,2.0,4.0,58,0.00,,,0.00,Wunderground v.1.15,2013-06-17 09:20:00,
2013-06-17 02:30:00,52.9,39.0,30.02,WNW,300,3.0,4.0,59,0.00,,,0.00,Wunderground v.1.15,2013-06-17 09:30:00,
2013-06-17 02:35:00,52.9,39.4,30.02,WNW,303,3.0,4.0,60,0.00,,,0.00,Wunderground v.1.15,2013-06-17 09:35:00,
2013-06-17 02:40:00,52.8,39.3,30.02,WNW,303,3.0,3.0,60,0.00,,,0.00,Wunderground v.1.15,2013-06-17 09:40:00,
2013-06-17 02:45:00,52.6,38.7,30.02,West,272,3.0,4.0,59,0.00,,,0.00,Wunderground v.1.15,2013-06-17 09:45:00,
2013-06-17 02:50:00,52.3,38.8,30.02,West,270,3.0,6.0,60,0.00,,,0.00,Wunderground v.1.15,2013-06-17 09:50:00,
2013-06-17 03:00:00,52.0,38.5,30.02,West,277,3.0,3.0,60,0.00,,,0.00,Wunderground v.1.15,2013-06-17 10:00:00,
2013-06-17 03:05:00,51.7,38.3,30.02,West,277,3.0,3.0,60,0.00,,,0.00,Wunderground v.1.15,2013-06-17 10:05:00,
2013-06-17 03:10:00,51.4,38.8,30.02,West,277,2.0,3.0,62,0.00,,,0.00,Wunderground v.1.15,2013-06-17 10:10:00,
2013-06-17 03:15:00,51.3,38.7,30.02,West,277,3.0,3.0,62,0.00,,,0.00,Wunderground v.1.15,2013-06-17 10:15:00,
2013-06-17 03:20:00,51.1,38.5,30.02,West,277,3.0,3.0,62,0.00,,,0.00,Wunderground v.1.15,2013-06-17 10:20:00,
2013-06-17 03:30:00,50.8,38.2,30.01,West,277,3.0,3.0,62,0.00,,,0.00,Wunderground v.1.15,2013-06-17 10:30:00,
2013-06-17 03:35:00,50.5,38.4,30.01,West,277,1.0,3.0,63,0.00,,,0.00,Wunderground v.1.15,2013-06-17 10:35:00,
2013-06-17 03:40:00,50.2,38.5,30.01,West,277,1.0,1.0,64,0.00,,,0.00,Wunderground v.1.15,2013-06-17 10:40:00,
2013-06-17 03:50:00,49.8,38.1,30.01,West,277,1.0,1.0,64,0.00,,,0.00,Wunderground v.1.15,2013-06-17 10:50:00,
2013-06-17 04:00:00,49.5,38.2,30.01,West,277,1.0,1.0,65,0.00,,,0.00,Wunderground v.1.15,2013-06-17 11:00:00,
2013-06-17 04:05:00,49.4,38.1,30.01,West,277,1.0,1.0,65,0.00,,,0.00,Wunderground v.1.15,2013-06-17 11:05:00,
2013-06-17 04:10:00,49.2,37.9,30.01,West,277,0.0,0.0,65,0.00,,,0.00,Wunderground v.1.15,2013-06-17 11:10:00,
2013-06-17 04:20:00,49.1,38.2,30.01,West,277,0.0,0.0,66,0.00,,,0.00,Wunderground v.1.15,2013-06-17 11:20:00,
2013-06-17 04:25:00,48.9,38.0,30.01,West,277,0.0,0.0,66,0.00,,,0.00,Wunderground v.1.15,2013-06-17 11:25:00,
2013-06-17 04:30:00,48.9,38.0,30.01,West,277,0.0,0.0,66,0.00,,,0.00,Wunderground v.1.15,2013-06-17 11:30:00,
2013-06-17 04:40:00,48.8,38.3,30.01,West,277,0.0,0.0,67,0.00,,,0.00,Wunderground v.1.15,2013-06-17 11:40:00,
2013-06-17 04:50:00,48.6,38.1,30.01,West,277,0.0,0.0,67,0.00,,,0.00,Wunderground v.1.15,2013-06-17 11:50:00,
2013-06-17 04:55:00,48.6,38.5,30.01,West,277,0.0,0.0,68,0.00,,,0.00,Wunderground v.1.15,2013-06-17 11:55:00,
2013-06-17 05:00:00,48.5,38.4,30.02,West,277,0.0,0.0,68,0.00,,,0.00,Wunderground v.1.15,2013-06-17 12:00:00,
2013-06-17 05:10:00,48.5,38.4,30.02,West,277,0.0,0.0,68,0.00,,,0.00,Wunderground v.1.15,2013-06-17 12:10:00,
2013-06-17 05:15:00,48.3,38.2,30.02,West,277,0.0,0.0,68,0.00,,,0.00,Wunderground v.1.15,2013-06-17 12:15:00,
2013-06-17 05:20:00,48.2,38.5,30.02,West,277,0.0,0.0,69,0.00,,,0.00,Wunderground v.1.15,2013-06-17 12:20:00,
2013-06-17 05:30:00,47.4,37.7,30.02,West,277,0.0,1.0,69,0.00,,,0.00,Wunderground v.1.15,2013-06-17 12:30:00,
2013-06-17 05:40:00,47.0,37.7,30.02,West,277,0.0,0.0,70,0.00,,,0.00,Wunderground v.1.15,2013-06-17 12:40:00,
2013-06-17 05:45:00,46.8,37.5,30.03,West,277,0.0,0.0,70,0.00,,,0.00,Wunderground v.1.15,2013-06-17 12:45:00,
2013-06-17 05:50:00,46.8,37.9,30.03,West,277,0.0,0.0,71,0.00,,,0.00,Wunderground v.1.15,2013-06-17 12:50:00,
2013-06-17 06:00:00,46.7,37.8,30.03,West,277,0.0,0.0,71,0.00,,,0.00,Wunderground v.1.15,2013-06-17 13:00:00,
2013-06-17 06:05:00,46.7,37.8,30.03,West,277,0.0,0.0,71,0.00,,,0.00,Wunderground v.1.15,2013-06-17 13:05:00,
2013-06-17 06:10:00,46.5,37.6,30.03,WSW,245,0.0,0.0,71,0.00,,,0.00,Wunderground v.1.15,2013-06-17 13:10:00,
2013-06-17 06:20:00,46.8,37.9,30.03,WSW,245,0.0,0.0,71,0.00,,,0.00,Wunderground v.1.15,2013-06-17 13:20:00,
2013-06-17 06:30:00,47.3,38.4,30.03,WSW,245,0.0,0.0,71,0.00,,,0.00,Wunderground v.1.15,2013-06-17 13:30:00,
2013-06-17 06:35:00,47.7,38.8,30.03,WSW,245,0.0,0.0,71,0.00,,,0.00,Wunderground v.1.15,2013-06-17 13:35:00,
2013-06-17 06:40:00,48.0,38.7,30.03,WSW,245,0.0,0.0,70,0.00,,,0.00,Wunderground v.1.15,2013-06-17 13:40:00,
2013-06-17 06:50:00,48.9,39.2,30.03,WSW,245,0.0,0.0,69,0.00,,,0.00,Wunderground v.1.15,2013-06-17 13:50:00,
2013-06-17 06:55:00,49.5,39.4,30.03,WSW,245,0.0,0.0,68,0.00,,,0.00,Wunderground v.1.15,2013-06-17 13:55:00,
2013-06-17 07:00:00,50.1,39.6,30.03,WSW,245,0.0,0.0,67,0.00,,,0.00,Wunderground v.1.15,2013-06-17 14:00:00,
2013-06-17 07:10:00,52.2,40.8,30.03,WSW,245,0.0,0.0,65,0.00,,,0.00,Wunderground v.1.15,2013-06-17 14:10:00,
2013-06-17 07:15:00,53.3,40.6,30.03,WSW,245,0.0,0.0,62,0.00,,,0.00,Wunderground v.1.15,2013-06-17 14:15:00,
2013-06-17 07:20:00,54.1,40.9,30.03,WSW,245,0.0,0.0,61,0.00,,,0.00,Wunderground v.1.15,2013-06-17 14:20:00,
2013-06-17 07:30:00,55.4,41.7,30.03,WSW,245,0.0,0.0,60,0.00,,,0.00,Wunderground v.1.15,2013-06-17 14:30:00,
2013-06-17 07:35:00,56.7,42.1,30.03,WSW,245,0.0,0.0,58,0.00,,,0.00,Wunderground v.1.15,2013-06-17 14:35:00,
2013-06-17 07:40:00,57.6,42.0,30.03,WSW,245,0.0,0.0,56,0.00,,,0.00,Wunderground v.1.15,2013-06-17 14:40:00,
2013-06-17 07:45:00,58.7,42.6,30.03,WSW,245,0.0,0.0,55,0.00,,,0.00,Wunderground v.1.15,2013-06-17 14:45:00,
2013-06-17 07:50:00,59.8,42.6,30.03,WSW,245,0.0,0.0,53,0.00,,,0.00,Wunderground v.1.15,2013-06-17 14:50:00,
2013-06-17 08:00:00,62.4,44.5,30.03,WSW,245,0.0,0.0,52,0.00,,,0.00,Wunderground v.1.15,2013-06-17 15:00:00,
2013-06-17 08:05:00,63.4,44.4,30.03,WSW,245,0.0,0.0,50,0.00,,,0.00,Wunderground v.1.15,2013-06-17 15:05:00,
2013-06-17 08:10:00,64.2,43.0,30.03,WSW,245,0.0,0.0,46,0.00,,,0.00,Wunderground v.1.15,2013-06-17 15:10:00,
2013-06-17 08:15:00,65.2,43.9,30.03,WSW,245,0.0,0.0,46,0.00,,,0.00,Wunderground v.1.15,2013-06-17 15:15:00,
2013-06-17 08:20:00,66.3,44.9,30.03,WSW,245,0.0,0.0,46,0.00,,,0.00,Wunderground v.1.15,2013-06-17 15:20:00,
2013-06-17 08:30:00,68.1,45.4,30.03,WSW,245,0.0,0.0,44,0.00,,,0.00,Wunderground v.1.15,2013-06-17 15:30:00,
2013-06-17 08:40:00,69.8,45.7,30.03,WSW,245,0.0,0.0,42,0.00,,,0.00,Wunderground v.1.15,2013-06-17 15:40:00,
2013-06-17 08:45:00,70.6,44.4,30.03,WSW,245,0.0,0.0,39,0.00,,,0.00,Wunderground v.1.15,2013-06-17 15:45:00,
2013-06-17 08:55:00,71.6,45.3,30.03,WSW,245,0.0,0.0,39,0.00,,,0.00,Wunderground v.1.15,2013-06-17 15:55:00,
2013-06-17 09:00:00,71.8,43.4,30.03,SW,236,1.0,3.0,36,0.00,,,0.00,Wunderground v.1.15,2013-06-17 16:00:00,
2013-06-17 09:10:00,72.0,44.3,30.03,NW,319,2.0,3.0,37,0.00,,,0.00,Wunderground v.1.15,2013-06-17 16:10:00,
2013-06-17 09:15:00,72.1,43.7,30.03,NW,319,2.0,3.0,36,0.00,,,0.00,Wunderground v.1.15,2013-06-17 16:15:00,
2013-06-17 09:20:00,72.5,43.3,30.03,NW,319,2.0,2.0,35,0.00,,,0.00,Wunderground v.1.15,2013-06-17 16:20:00,
2013-06-17 09:30:00,73.2,43.1,30.02,NW,320,2.0,2.0,34,0.00,,,0.00,Wunderground v.1.15,2013-06-17 16:30:00,
2013-06-17 09:35:00,73.5,44.2,30.02,NW,320,2.0,2.0,35,0.00,,,0.00,Wunderground v.1.15,2013-06-17 16:35:00,
2013-06-17 09:45:00,74.6,44.4,30.01,NW,308,1.0,3.0,34,0.00,,,0.00,Wunderground v.1.15,2013-06-17 16:45:00,
2013-06-17 09:50:00,74.9,42.2,30.01,SW,236,2.0,2.0,31,0.00,,,0.00,Wunderground v.1.15,2013-06-17 16:50:00,
2013-06-17 10:00:00,76.0,43.2,30.01,West,278,2.0,6.0,31,0.00,,,0.00,Wunderground v.1.15,2013-06-17 17:00:00,
2013-06-17 10:05:00,76.3,41.7,30.01,East,97,2.0,6.0,29,0.00,,,0.00,Wunderground v.1.15,2013-06-17 17:05:00,
2013-06-17 10:10:00,76.1,42.4,30.01,NNE,30,1.0,2.0,30,0.00,,,0.00,Wunderground v.1.15,2013-06-17 17:10:00,
2013-06-17 10:20:00,76.7,42.9,30.01,WNW,288,3.0,3.0,30,0.00,,,0.00,Wunderground v.1.15,2013-06-17 17:20:00,
2013-06-17 10:25:00,77.2,42.5,30.01,NW,306,2.0,3.0,29,0.00,,,0.00,Wunderground v.1.15,2013-06-17 17:25:00,
2013-06-17 10:35:00,77.9,42.2,30.00,ENE,68,1.0,2.0,28,0.00,,,0.00,Wunderground v.1.15,2013-06-17 17:35:00,
2013-06-17 10:45:00,79.2,43.3,30.00,East,99,1.0,4.0,28,0.00,,,0.00,Wunderground v.1.15,2013-06-17 17:45:00,
2013-06-17 10:50:00,79.2,42.3,30.00,East,94,1.0,6.0,27,0.00,,,0.00,Wunderground v.1.15,2013-06-17 17:50:00,
2013-06-17 11:00:00,79.4,43.4,30.00,NE,49,4.0,4.0,28,0.00,,,0.00,Wunderground v.1.15,2013-06-17 18:00:00,
2013-06-17 11:05:00,80.1,42.1,30.00,South,177,3.0,6.0,26,0.00,,,0.00,Wunderground v.1.15,2013-06-17 18:05:00,
2013-06-17 11:10:00,80.1,42.1,30.00,NNW,340,3.0,3.0,26,0.00,,,0.00,Wunderground v.1.15,2013-06-17 18:10:00,
2013-06-17 11:15:00,80.3,43.3,30.00,NE,56,4.0,4.0,27,0.00,,,0.00,Wunderground v.1.15,2013-06-17 18:15:00,
2013-06-17 11:25:00,81.1,41.9,30.00,SSW,196,2.0,3.0,25,0.00,,,0.00,Wunderground v.1.15,2013-06-17 18:25:00,
2013-06-17 11:30:00,80.9,43.8,30.00,SE,138,3.0,3.0,27,0.00,,,0.00,Wunderground v.1.15,2013-06-17 18:30:00,
2013-06-17 11:35:00,81.2,42.0,30.00,ESE,115,2.0,3.0,25,0.00,,,0.00,Wunderground v.1.15,2013-06-17 18:35:00,
2013-06-17 11:40:00,81.6,42.4,30.00,ENE,64,2.0,2.0,25,0.00,,,0.00,Wunderground v.1.15,2013-06-17 18:40:00,
2013-06-17 11:50:00,81.4,44.2,30.00,South,171,3.0,7.0,27,0.00,,,0.00,Wunderground v.1.15,2013-06-17 18:50:00,
2013-06-17 11:55:00,83.2,41.5,30.00,SW,219,3.0,7.0,23,0.00,,,0.00,Wunderground v.1.15,2013-06-17 18:55:00,
2013-06-17 12:00:00,83.0,41.4,30.00,NW,320,2.0,2.0,23,0.00,,,0.00,Wunderground v.1.15,2013-06-17 19:00:00,
2013-06-17 12:10:00,82.8,37.6,30.00,WSW,246,5.0,5.0,20,0.00,,,0.00,Wunderground v.1.15,2013-06-17 19:10:00,
2013-06-17 12:15:00,82.8,36.3,30.00,West,268,7.0,7.0,19,0.00,,,0.00,Wunderground v.1.15,2013-06-17 19:15:00,
2013-06-17 12:20:00,83.2,37.9,30.00,West,275,5.0,7.0,20,0.00,,,0.00,Wunderground v.1.15,2013-06-17 19:20:00,
2013-06-17 12:45:00,83.8,39.7,30.00,WNW,302,7.0,9.0,21,0.00,,,0.00,Wunderground v.1.15,2013-06-17 19:45:00,
2013-06-17 12:50:00,83.6,39.5,30.00,SW,234,7.0,7.0,21,0.00,,,0.00,Wunderground v.1.15,2013-06-17 19:50:00,
2013-06-17 13:00:00,84.0,38.6,29.99,SW,216,6.0,12.0,20,0.00,,,0.00,Wunderground v.1.15,2013-06-17 20:00:00,
2013-06-17 13:05:00,84.1,38.7,29.99,West,279,6.0,12.0,20,0.00,,,0.00,Wunderground v.1.15,2013-06-17 20:05:00,
2013-06-17 13:10:00,84.1,38.7,29.99,WNW,296,6.0,6.0,20,0.00,,,0.00,Wunderground v.1.15,2013-06-17 20:10:00,
2013-06-17 13:20:00,83.8,39.7,29.98,WNW,298,8.0,8.0,21,0.00,,,0.00,Wunderground v.1.15,2013-06-17 20:20:00,
2013-06-17 13:30:00,83.8,40.9,29.98,WNW,298,9.0,13.0,22,0.00,,,0.00,Wunderground v.1.15,2013-06-17 20:30:00,
2013-06-17 13:35:00,84.0,41.1,29.98,NW,312,10.0,21.0,22,0.00,,,0.00,Wunderground v.1.15,2013-06-17 20:35:00,
2013-06-17 13:45:00,83.8,40.9,29.98,WNW,301,13.0,16.0,22,0.00,,,0.00,Wunderground v.1.15,2013-06-17 20:45:00,
2013-06-17 13:50:00,83.6,39.5,29.98,NW,315,12.0,12.0,21,0.00,,,0.00,Wunderground v.1.15,2013-06-17 20:50:00,
2013-06-17 13:55:00,84.3,41.3,29.98,WSW,247,11.0,12.0,22,0.00,,,0.00,Wunderground v.1.15,2013-06-17 20:55:00,
2013-06-17 14:05:00,83.8,39.7,29.98,NW,315,7.0,8.0,21,0.00,,,0.00,Wunderground v.1.15,2013-06-17 21:05:00,
2013-06-17 14:15:00,83.6,39.5,29.98,West,281,8.0,14.0,21,0.00,,,0.00,Wunderground v.1.15,2013-06-17 21:15:00,
2013-06-17 14:20:00,83.8,39.7,29.98,NW,323,7.0,7.0,21,0.00,,,0.00,Wunderground v.1.15,2013-06-17 21:20:00,
2013-06-17 14:30:00,84.0,41.1,29.98,NW,306,7.0,10.0,22,0.00,,,0.00,Wunderground v.1.15,2013-06-17 21:30:00,
2013-06-17 14:35:00,84.0,43.3,29.98,NW,311,7.0,10.0,24,0.00,,,0.00,Wunderground v.1.15,2013-06-17 21:35:00,
2013-06-17 14:45:00,83.6,43.0,29.98,West,279,6.0,9.0,24,0.00,,,0.00,Wunderground v.1.15,2013-06-17 21:45:00,
2013-06-17 14:50:00,83.4,43.9,29.98,WNW,282,6.0,11.0,25,0.00,,,0.00,Wunderground v.1.15,2013-06-17 21:50:00,
2013-06-17 15:00:00,83.4,43.9,29.97,WNW,286,7.0,7.0,25,0.00,,,0.00,Wunderground v.1.15,2013-06-17 22:00:00,
2013-06-17 15:10:00,83.8,44.2,29.97,NW,310,6.0,6.0,25,0.00,,,0.00,Wunderground v.1.15,2013-06-17 22:10:00,
2013-06-17 15:15:00,83.8,44.2,29.97,NW,315,6.0,7.0,25,0.00,,,0.00,Wunderground v.1.15,2013-06-17 22:15:00,
2013-06-17 15:25:00,83.2,44.7,29.97,West,266,7.0,9.0,26,0.00,,,0.00,Wunderground v.1.15,2013-06-17 22:25:00,
2013-06-17 15:30:00,83.4,43.9,29.97,NW,317,7.0,7.0,25,0.00,,,0.00,Wunderground v.1.15,2013-06-17 22:30:00,
2013-06-17 15:40:00,83.4,44.9,29.97,West,265,6.0,6.0,26,0.00,,,0.00,Wunderground v.1.15,2013-06-17 22:40:00,
2013-06-17 15:45:00,83.4,45.9,29.96,NW,316,7.0,7.0,27,0.00,,,0.00,Wunderground v.1.15,2013-06-17 22:45:00,
2013-06-17 15:50:00,83.8,44.2,29.96,WSW,244,7.0,12.0,25,0.00,,,0.00,Wunderground v.1.15,2013-06-17 22:50:00,
2013-06-17 16:00:00,84.0,46.4,29.96,NW,311,5.0,5.0,27,0.00,,,0.00,Wunderground v.1.15,2013-06-17 23:00:00,
2013-06-17 16:05:00,84.0,46.4,29.96,South,169,5.0,5.0,27,0.00,,,0.00,Wunderground v.1.15,2013-06-17 23:05:00,
2013-06-17 16:10:00,83.6,47.0,29.96,WNW,286,6.0,6.0,28,0.00,,,0.00,Wunderground v.1.15,2013-06-17 23:10:00,
2013-06-17 16:20:00,83.4,45.9,29.95,NW,319,6.0,6.0,27,0.00,,,0.00,Wunderground v.1.15,2013-06-17 23:20:00,
2013-06-17 16:25:00,83.2,46.7,29.95,West,267,6.0,6.0,28,0.00,,,0.00,Wunderground v.1.15,2013-06-17 23:25:00,
2013-06-17 16:30:00,83.0,47.5,29.95,WNW,300,7.0,7.0,29,0.00,,,0.00,Wunderground v.1.15,2013-06-17 23:30:00,
2013-06-17 16:40:00,83.4,45.9,29.95,West,275,8.0,8.0,27,0.00,,,0.00,Wunderground v.1.15,2013-06-17 23:40:00,
2013-06-17 16:45:00,83.8,47.2,29.95,West,260,7.0,8.0,28,0.00,,,0.00,Wunderground v.1.15,2013-06-17 23:45:00,
2013-06-17 16:50:00,83.6,47.0,29.95,NW,321,6.0,6.0,28,0.00,,,0.00,Wunderground v.1.15,2013-06-17 23:50:00,
2013-06-17 16:55:00,83.8,47.2,29.95,WSW,242,6.0,6.0,28,0.00,,,0.00,Wunderground v.1.15,2013-06-17 23:55:00,
2013-06-17 17:00:00,84.0,46.4,29.95,NW,319,6.0,6.0,27,0.00,,,0.00,Wunderground v.1.15,2013-06-18 00:00:00,
2013-06-17 17:10:00,83.8,47.2,29.95,WNW,285,6.0,6.0,28,0.00,,,0.00,Wunderground v.1.15,2013-06-18 00:10:00,
2013-06-17 17:15:00,83.4,45.9,29.94,WSW,239,6.0,6.0,27,0.00,,,0.00,Wunderground v.1.15,2013-06-18 00:15:00,
2013-06-17 17:20:00,83.8,46.2,29.94,WNW,284,6.0,6.0,27,0.00,,,0.00,Wunderground v.1.15,2013-06-18 00:20:00,
2013-06-17 17:30:00,82.4,46.0,29.94,WNW,291,6.0,6.0,28,0.00,,,0.00,Wunderground v.1.15,2013-06-18 00:30:00,
2013-06-17 17:35:00,82.6,46.2,29.94,West,260,6.0,6.0,28,0.00,,,0.00,Wunderground v.1.15,2013-06-18 00:35:00,
2013-06-17 17:40:00,81.8,45.5,29.94,West,276,6.0,12.0,28,0.00,,,0.00,Wunderground v.1.15,2013-06-18 00:40:00,
2013-06-17 17:50:00,81.8,45.5,29.94,South,189,6.0,6.0,28,0.00,,,0.00,Wunderground v.1.15,2013-06-18 00:50:00,
2013-06-17 17:55:00,81.4,45.2,29.94,WSW,245,5.0,12.0,28,0.00,,,0.00,Wunderground v.1.15,2013-06-18 00:55:00,
2013-06-17 18:00:00,81.1,45.8,29.93,North,355,6.0,6.0,29,0.00,,,0.00,Wunderground v.1.15,2013-06-18 01:00:00,
2013-06-17 18:05:00,80.9,45.7,29.93,West,273,6.0,6.0,29,0.00,,,0.00,Wunderground v.1.15,2013-06-18 01:05:00,
2013-06-17 18:10:00,80.5,45.3,29.93,West,274,6.0,8.0,29,0.00,,,0.00,Wunderground v.1.15,2013-06-18 01:10:00,
2013-06-17 18:20:00,79.8,46.5,29.93,West,280,7.0,9.0,31,0.00,,,0.00,Wunderground v.1.15,2013-06-18 01:20:00,
2013-06-17 18:25:00,79.6,46.3,29.93,NNW,335,7.0,9.0,31,0.00,,,0.00,Wunderground v.1.15,2013-06-18 01:25:00,
2013-06-17 18:30:00,79.4,45.3,29.93,WNW,288,7.0,7.0,30,0.00,,,0.00,Wunderground v.1.15,2013-06-18 01:30:00,
2013-06-17 18:35:00,79.4,44.4,29.93,West,277,5.0,7.0,29,0.00,,,0.00,Wunderground v.1.15,2013-06-18 01:35:00,
2013-06-17 18:40:00,79.2,45.1,29.93,WSW,250,6.0,6.0,30,0.00,,,0.00,Wunderground v.1.15,2013-06-18 01:40:00,
2013-06-17 18:50:00,78.8,45.6,29.93,NW,314,5.0,6.0,31,0.00,,,0.00,Wunderground v.1.15,2013-06-18 01:50:00,
2013-06-17 18:55:00,78.6,45.4,29.93,WNW,291,6.0,7.0,31,0.00,,,0.00,Wunderground v.1.15,2013-06-18 01:55:00,
2013-06-17 19:05:00,78.3,46.0,29.93,West,274,6.0,10.0,32,0.00,,,0.00,Wunderground v.1.15,2013-06-18 02:05:00,
2013-06-17 19:10:00,78.1,45.8,29.93,West,273,6.0,13.0,32,0.00,,,0.00,Wunderground v.1.15,2013-06-18 02:10:00,
2013-06-17 19:20:00,78.1,46.6,29.93,West,274,6.0,6.0,33,0.00,,,0.00,Wunderground v.1.15,2013-06-18 02:20:00,
2013-06-17 19:30:00,77.7,47.9,29.93,SW,221,4.0,4.0,35,0.00,,,0.00,Wunderground v.1.15,2013-06-18 02:30:00,
2013-06-17 19:35:00,77.6,47.8,29.93,West,273,4.0,4.0,35,0.00,,,0.00,Wunderground v.1.15,2013-06-18 02:35:00,
2013-06-17 19:40:00,77.7,47.1,29.93,West,278,3.0,3.0,34,0.00,,,0.00,Wunderground v.1.15,2013-06-18 02:40:00,
2013-06-17 19:50:00,77.0,47.2,29.93,WSW,246,2.0,2.0,35,0.00,,,0.00,Wunderground v.1.15,2013-06-18 02:50:00,
2013-06-17 19:55:00,76.5,41.0,29.93,WNW,302,2.0,7.0,28,0.00,,,0.00,Wunderground v.1.15,2013-06-18 02:55:00,
2013-06-17 20:00:00,76.1,45.7,29.93,NNE,17,2.0,2.0,34,0.00,,,0.00,Wunderground v.1.15,2013-06-18 03:00:00,
2013-06-17 20:05:00,75.6,46.8,29.93,NNW,333,1.0,5.0,36,0.00,,,0.00,Wunderground v.1.15,2013-06-18 03:05:00,
2013-06-17 20:10:00,74.9,46.9,29.93,NNW,336,2.0,2.0,37,0.00,,,0.00,Wunderground v.1.15,2013-06-18 03:10:00,
2013-06-17 20:20:00,73.9,46.0,29.93,WNW,300,2.0,4.0,37,0.00,,,0.00,Wunderground v.1.15,2013-06-18 03:20:00,
2013-06-17 20:25:00,73.7,45.8,29.93,WNW,300,2.0,4.0,37,0.00,,,0.00,Wunderground v.1.15,2013-06-18 03:25:00,
2013-06-17 20:30:00,73.2,46.1,29.94,WNW,300,1.0,1.0,38,0.00,,,0.00,Wunderground v.1.15,2013-06-18 03:30:00,
2013-06-17 20:40:00,72.3,44.6,29.94,WNW,300,0.0,0.0,37,0.00,,,0.00,Wunderground v.1.15,2013-06-18 03:40:00,
2013-06-17 20:45:00,71.8,44.8,29.93,WNW,300,0.0,0.0,38,0.00,,,0.00,Wunderground v.1.15,2013-06-18 03:45:00,
2013-06-17 20:50:00,71.3,44.4,29.93,WNW,300,0.0,1.0,38,0.00,,,0.00,Wunderground v.1.15,2013-06-18 03:50:00,
2013-06-17 20:55:00,70.8,43.9,29.93,WNW,300,0.0,1.0,38,0.00,,,0.00,Wunderground v.1.15,2013-06-18 03:55:00,
2013-06-17 21:00:00,70.3,44.2,29.94,WNW,300,0.0,0.0,39,0.00,,,0.00,Wunderground v.1.15,2013-06-18 04:00:00,
2013-06-17 21:05:00,69.8,43.7,29.94,WNW,300,0.0,0.0,39,0.00,,,0.00,Wunderground v.1.15,2013-06-18 04:05:00,
2013-06-17 21:10:00,69.4,44.0,29.94,WNW,300,0.0,0.0,40,0.00,,,0.00,Wunderground v.1.15,2013-06-18 04:10:00,
2013-06-17 21:15:00,68.9,44.9,29.95,WNW,300,0.0,0.0,42,0.00,,,0.00,Wunderground v.1.15,2013-06-18 04:15:00,
2013-06-17 21:20:00,68.3,44.3,29.95,WNW,300,0.0,0.0,42,0.00,,,0.00,Wunderground v.1.15,2013-06-18 04:20:00,
2013-06-17 21:30:00,66.8,44.2,29.95,WNW,300,0.0,0.0,44,0.00,,,0.00,Wunderground v.1.15,2013-06-18 04:30:00,
2013-06-17 21:35:00,66.0,44.6,29.95,WNW,300,0.0,0.0,46,0.00,,,0.00,Wunderground v.1.15,2013-06-18 04:35:00,
2013-06-17 21:40:00,65.2,44.5,29.95,WNW,300,0.0,0.0,47,0.00,,,0.00,Wunderground v.1.15,2013-06-18 04:40:00,
2013-06-17 21:50:00,64.0,43.9,29.95,WNW,300,0.0,0.0,48,0.00,,,0.00,Wunderground v.1.15,2013-06-18 04:50:00,
2013-06-17 21:55:00,63.4,44.4,29.95,WNW,300,0.0,0.0,50,0.00,,,0.00,Wunderground v.1.15,2013-06-18 04:55:00,
2013-06-17 22:00:00,62.9,44.5,29.96,WNW,300,0.0,0.0,51,0.00,,,0.00,Wunderground v.1.15,2013-06-18 05:00:00,
2013-06-17 22:05:00,62.3,43.9,29.96,WNW,300,0.0,0.0,51,0.00,,,0.00,Wunderground v.1.15,2013-06-18 05:05:00,
2013-06-17 22:10:00,61.8,44.0,29.96,WNW,300,0.0,1.0,52,0.00,,,0.00,Wunderground v.1.15,2013-06-18 05:10:00,
2013-06-17 22:20:00,61.0,43.7,29.97,WNW,300,1.0,1.0,53,0.00,,,0.00,Wunderground v.1.15,2013-06-18 05:20:00,
2013-06-17 22:25:00,60.7,43.9,29.97,WNW,300,1.0,1.0,54,0.00,,,0.00,Wunderground v.1.15,2013-06-18 05:25:00,
2013-06-17 22:30:00,60.5,43.8,29.97,WNW,300,0.0,0.0,54,0.00,,,0.00,Wunderground v.1.15,2013-06-18 05:30:00,
2013-06-17 22:40:00,60.1,43.9,29.97,WNW,300,0.0,0.0,55,0.00,,,0.00,Wunderground v.1.15,2013-06-18 05:40:00,
2013-06-17 22:45:00,59.6,43.9,29.97,WNW,300,0.0,0.0,56,0.00,,,0.00,Wunderground v.1.15,2013-06-18 05:45:00,
2013-06-17 22:50:00,59.3,43.6,29.97,WNW,300,0.0,2.0,56,0.00,,,0.00,Wunderground v.1.15,2013-06-18 05:50:00,
2013-06-17 22:55:00,59.2,44.0,29.97,WNW,300,0.0,2.0,57,0.00,,,0.00,Wunderground v.1.15,2013-06-18 05:55:00,
2013-06-17 23:00:00,59.0,43.8,29.96,WNW,300,0.0,0.0,57,0.00,,,0.00,Wunderground v.1.15,2013-06-18 06:00:00,
2013-06-17 23:10:00,58.9,43.7,29.96,WNW,300,0.0,0.0,57,0.00,,,0.00,Wunderground v.1.15,2013-06-18 06:10:00,
2013-06-17 23:20:00,58.3,43.6,29.95,WNW,300,1.0,1.0,58,0.00,,,0.00,Wunderground v.1.15,2013-06-18 06:20:00,
2013-06-17 23:25:00,58.1,43.8,29.95,WNW,300,1.0,1.0,59,0.00,,,0.00,Wunderground v.1.15,2013-06-18 06:25:00,
2013-06-17 23:35:00,57.6,43.4,29.96,WNW,300,0.0,0.0,59,0.00,,,0.00,Wunderground v.1.15,2013-06-18 06:35:00,
2013-06-17 23:40:00,57.3,43.5,29.96,WNW,300,0.0,0.0,60,0.00,,,0.00,Wunderground v.1.15,2013-06-18 06:40:00,
2013-06-17 23:50:00,56.9,43.6,29.96,WNW,300,0.0,0.0,61,0.00,,,0.00,Wunderground v.1.15,2013-06-18 06:50:00,
2013-06-17 23:55:00,56.7,43.0,29.96,WNW,300,0.0,0.0,60,0.00,,,0.00,Wunderground v.1.15,2013-06-18 06:55:00,